Live aus Altenrhein
LIVE
LSZR 270350Z AUTO VRB01KT CAVOK M01/M01 Q1013

People´s Info Center:

Öffnungszeiten Mo-Fr, 8-18 Uhr

 

info@peoples.ch

 
Aus Österreich:

T: +43 (0)5572 203 610

 

Aus CH / LI / DE:

T: +41 (0)71 858 51 60

 

Webcam Flughafen St.Gallen-Altenrhein

Live-Bilder und Zeitraffer LSZR / ACH.

 

Live aus Altenrhein
LIVE
LSZR 270350Z AUTO VRB01KT CAVOK M01/M01 Q1013
Zeitraffer heute
2017-02-27 00:14:54
LSZR 262250Z AUTO VRB01KT CAVOK 00/M00 Q1016
Zeitraffer gestern
2017-02-26 00:14:54
LSZR 252250Z AUTO 14004KT CAVOK 02/M01 Q1019
Zeitraffer vor 3 Tagen
2017-02-24 00:00:00
LSZR 232250Z AUTO 27006KT 230V300 9999 OVC050 11/04 Q1005